LYPG

Podgorica Airport

Podgorica, Montenegro
TAF LYPG 221700Z 2218/2318 14007KT 9999 SCT040 SCT080 TX27/2313Z TN22/2303Z PROB40 TEMPO 2303/2318 VRB15G25KT 4000 TSRA FEW030CB BKN040
Issued Valid From Valid To
Jul-22 @ 17:00 UTC
(3 hours ago)
Jul-22 @ 18:00 UTC
(2 hours ago)
Jul-23 @ 18:00 UTC
(in 22 hours)
Jul-22 @ 18:00 to Jul-23 @ 18:00
TAF LYPG 221700Z 2218/2318 14007KT 9999 SCT040 SCT080 TX27/2313Z TN22/2303Z
Wind Visibility Clouds
140° at 7 knots 10,000+ meters
  • Scattered at 4,000' AGL
  • Scattered at 8,000' AGL
Temporary  (Probability 40%) Jul-23 @ 03:00 to Jul-23 @ 18:00
PROB40 TEMPO 2303/2318 VRB15G25KT 4000 TSRA FEW030CB BKN040
Wind Visibility Clouds Conditions
Variable at 15 knots
 Gusting to 25 knots
4,007 meters
  • Few at 3,000' AGL
  • Broken at 4,000' AGL
  • Thunderstorm
  • Rain
TAF LYPG 221700Z 2218/2318 14007KT 9999 SCT040 SCT080 TX27/2313Z TN22/2303Z PROB40 TEMPO 2303/2318 VRB15G25KT 4000 TSRA FEW030CB BKN040
Issued Jul-22 @ 17:00 UTC
(3 hours ago)
Valid From Jul-22 @ 18:00 UTC
(2 hours ago)
Valid To Jul-23 @ 18:00 UTC
(in 22 hours)
Jul-22 @ 18:00 - Jul-23 @ 18:00
Wind Visibility
140° at 7 knots 10,000+ meters
Clouds
  • Scattered at 4,000' AGL
  • Scattered at 8,000' AGL
Probability 40% Temporary Jul-23 @ 03:00 - Jul-23 @ 18:00
Wind Visibility
Variable at 15 knots
 Gusting to 25 knots
4,007 meters
Clouds
  • Few at 3,000' AGL
  • Broken at 4,000' AGL
Conditions
  • Thunderstorm
  • Rain